This is the latest recevied weather packets stored in our database for station/object CE4TQY-10. If no packets are shown the sender has not sent any weather packets the latest 10 day(s).
| Time | Temp. | Humidity | Pressure | Rain* | Wind** | Luminosity | Snow |
|---|---|---|---|---|---|---|---|
| 1777753034 | 23.89° C | 35% | 1018 hPa | - | - | - | - |
| 1777752133 | 23.89° C | 34% | 1018.1 hPa | - | - | - | - |
| 1777751232 | 23.89° C | 31% | 1018.1 hPa | - | - | - | - |
| 1777750331 | 23.89° C | 34% | 1017.9 hPa | - | - | - | - |
| 1777749430 | 23.89° C | 35% | 1017.9 hPa | - | - | - | - |
| 1777748529 | 23.89° C | 36% | 1017.9 hPa | - | - | - | - |
| 1777747628 | 23.89° C | 36% | 1017.9 hPa | - | - | - | - |
| 1777746728 | 22.78° C | 36% | 1018 hPa | - | - | - | - |
| 1777745827 | 22.78° C | 36% | 1018 hPa | - | - | - | - |
| 1777744926 | 22.78° C | 38% | 1018.1 hPa | - | - | - | - |
| 1777744025 | 22.78° C | 39% | 1018.4 hPa | - | - | - | - |
| 1777743124 | 22.78° C | 40% | 1018.4 hPa | - | - | - | - |
| 1777742223 | 22.22° C | 41% | 1018.5 hPa | - | - | - | - |
| 1777741322 | 22.22° C | 42% | 1018.6 hPa | - | - | - | - |
| 1777740422 | 21.67° C | 42% | 1018.8 hPa | - | - | - | - |
| 1777739520 | 21.11° C | 43% | 1019 hPa | - | - | - | - |
| 1777738619 | 21.11° C | 44% | 1019.3 hPa | - | - | - | - |
| 1777737718 | 25° C | 39% | 1019.6 hPa | - | - | - | - |
| 1777736816 | 25.56° C | 39% | 1019.7 hPa | - | - | - | - |
| 1777735915 | 26.11° C | 38% | 1020 hPa | - | - | - | - |
| 1777735014 | 27.22° C | 37% | 1020 hPa | - | - | - | - |
| 1777734113 | 24.44° C | 41% | 1020.1 hPa | - | - | - | - |
| 1777733212 | 23.33° C | 43% | 1020.3 hPa | - | - | - | - |
| 1777732312 | 24.44° C | 42% | 1020.5 hPa | - | - | - | - |
| 1777731411 | 18.89° C | 55% | 1020.6 hPa | - | - | - | - |
* Rain since midnight (hover to see other rain measurements)
** Current wind speed in m/s (hover to see current wind gust speed)